• Join FlightAware (Why Join?)
  • Login
  • US Flag 
09:56AM EDT


 

Airport Tracker/Info


-or-


 

Live Flight TrackerFlight Track Log ✈ AAL1230 ✈ 13-Jul-2013 ✈ KSEA - KDFW

Flight Track Log - Related Links

Times and Time Zones

All times are in EDT time to prevent confusion due to time zone crossing. See the AAL1230 flight status page for this flight to view local times or setup timezone preferences in your user account.

Time Position Orientation Groundspeed Altitude Reporting Facility
EDT Latitude Longitude Course Direction KTS MPH feet Rate Location/Type
02:41AM 47.4719 -122.3064 358° North 171 197 1,500  Level Seattle Center
02:42AM 47.5017 -122.3078 358° North 174 200 2,200 2,160 Climbing Seattle Center
02:43AM 47.5675 -122.3219 352° North 242 278 5,100 3,120 Climbing Seattle Center
02:44AM 47.6214 -122.4008 315° West 255 293 8,500 3,180 Climbing Seattle Center
02:45AM 47.6242 -122.4950 273° West 265 305 11,500 2,760 Climbing Seattle Center
02:46AM 47.5489 -122.4881 176° South 299 344 14,100 1,980 Climbing Seattle Center
02:47AM 47.4667 -122.4453 161° South 333 383 15,500 1,440 Climbing Seattle Center
02:48AM 47.3717 -122.3897 158° South 377 434 17,000 1,260 Climbing Seattle Center
02:49AM 47.2789 -122.3408 160° South 407 468 18,100 1,800 Climbing Seattle Center
02:50AM 47.1458 -122.2703 160° South 428 493 20,700 2,100 Climbing Seattle Center
02:51AM 47.0303 -122.2078 160° South 446 513 22,300 1,860 Climbing Seattle Center
02:52AM 46.9103 -122.1442 160° South 461 531 24,500 2,220 Climbing Seattle Center
02:53AM 46.7942 -122.0822 160° South 451 519 26,800 1,860 Climbing Seattle Center
02:54AM 46.6797 -122.0181 159° South 448 516 28,300 1,320 Climbing Seattle Center
02:55AM 46.6131 -121.8614 122° Southeast 456 525 29,500 960 Climbing Seattle Center
02:56AM 46.5539 -121.6933 117° Southeast 466 536 30,300 840 Climbing Seattle Center
02:57AM 46.4911 -121.5111 117° Southeast 490 564 31,200 960 Climbing Seattle Center
02:58AM 46.4278 -121.3319 117° Southeast 500 575 32,300 1,140 Climbing Seattle Center
02:59AM 46.3644 -121.1528 117° Southeast 502 578 33,500 1,140 Climbing Seattle Center
03:00AM 46.2994 -120.9731 118° Southeast 504 580 34,600 1,140 Climbing Seattle Center
03:01AM 46.2358 -120.7961 117° Southeast 498 573 35,800 1,020 Climbing Seattle Center
03:02AM 46.1719 -120.6208 118° Southeast 495 570 36,700 540 Climbing Seattle Center
03:03AM 46.1089 -120.4481 118° Southeast 488 562 37,000 120 Climbing Seattle Center
03:04AM 46.0447 -120.2742 118° Southeast 490 564 37,000  Level Seattle Center
03:05AM 45.9814 -120.1028 118° Southeast 486 559 37,000  Level Seattle Center
03:06AM 45.9194 -119.9361 118° Southeast 477 549 37,000  Level Seattle Center
03:07AM 45.8569 -119.7683 118° Southeast 476 548 37,000  Level Seattle Center
03:08AM 45.7944 -119.6028 118° Southeast 473 544 37,000  Level Seattle Center
03:09AM 45.7300 -119.4372 119° Southeast 473 544 37,000  Level Seattle Center
03:10AM 45.6669 -119.2697 118° Southeast 476 548 37,000  Level Seattle Center
03:11AM 45.6033 -119.1033 119° Southeast 476 548 37,000  Level Seattle Center
03:12AM 45.5397 -118.9367 119° Southeast 476 548 37,000  Level Seattle Center
03:13AM 45.4747 -118.7708 119° Southeast 477 549 37,000  Level Seattle Center
03:14AM 45.4089 -118.6039 119° Southeast 483 556 37,000  Level Seattle Center
03:15AM 45.3425 -118.4328 119° Southeast 490 564 37,000  Level Seattle Center
03:16AM 45.2758 -118.2650 119° Southeast 489 563 37,000  Level Seattle Center
03:17AM 45.2072 -118.0967 120° Southeast 491 565 37,000  Level Seattle Center
03:18AM 45.1336 -117.9128 120° Southeast 487 560 37,000  Level Seattle Center
03:19AM 45.0717 -117.7567 119° Southeast 479 551 37,000  Level Seattle Center
03:20AM 45.0089 -117.6008 120° Southeast 477 549 37,000  Level Seattle Center
03:21AM 44.9433 -117.4467 121° Southeast 479 551 37,000  Level Seattle Center
03:22AM 44.8692 -117.2658 120° Southeast 477 549 37,000  Level Seattle Center
03:23AM 44.8050 -117.1097 120° Southeast 479 551 37,000  Level Seattle Center
03:24AM 44.7406 -116.9533 120° Southeast 481 554 37,000  Level Seattle Center
03:25AM 44.6639 -116.7706 120° Southeast 485 558 37,000  Level Seattle Center
03:26AM 44.5983 -116.6136 120° Southeast 490 564 37,000  Level Salt Lake Center
03:27AM 44.5214 -116.4306 120° Southeast 489 563 37,000  Level Salt Lake Center
03:28AM 44.4553 -116.2775 121° Southeast 487 560 37,000  Level Salt Lake Center
03:29AM 44.3792 -116.1000 121° Southeast 497 572 37,000  Level Salt Lake Center
03:30AM 44.3158 -115.9469 120° Southeast 486 559 37,000  Level Salt Lake Center
03:31AM 44.2508 -115.7972 121° Southeast 478 550 37,000  Level Salt Lake Center
03:32AM 44.1739 -115.6206 121° Southeast 478 550 37,000  Level Salt Lake Center
03:33AM 44.1078 -115.4708 122° Southeast 475 547 37,000  Level Salt Lake Center
03:34AM 44.0422 -115.3222 121° Southeast 473 544 37,000  Level Salt Lake Center
03:35AM 43.9658 -115.1483 121° Southeast 473 544 37,000  Level Salt Lake Center
03:36AM 43.9019 -115.0028 121° Southeast 464 534 37,000  Level Salt Lake Center
03:37AM 43.8364 -114.8547 122° Southeast 470 541 37,000  Level Salt Lake Center
03:38AM 43.7589 -114.6839 122° Southeast 470 541 37,000  Level Salt Lake Center
03:39AM 43.6928 -114.5381 122° Southeast 468 539 37,000  Level Salt Lake Center
03:40AM 43.6261 -114.3925 122° Southeast 468 539 37,000  Level Salt Lake Center
03:41AM 43.5606 -114.2456 122° Southeast 470 541 37,000  Level Salt Lake Center
03:42AM 43.4825 -114.0756 122° Southeast 470 541 37,000  Level Salt Lake Center
03:43AM 43.4156 -113.9306 122° Southeast 469 540 37,000  Level Salt Lake Center
03:44AM 43.3400 -113.7683 123° Southeast 470 541 37,000  Level Salt Lake Center
03:45AM 43.2728 -113.6247 123° Southeast 468 539 37,000  Level Salt Lake Center
03:46AM 43.2047 -113.4808 123° Southeast 470 541 37,000  Level Salt Lake Center
03:47AM 43.1267 -113.3131 122° Southeast 469 540 37,000  Level Salt Lake Center
03:48AM 43.0594 -113.1708 123° Southeast 468 539 37,000  Level Salt Lake Center
03:49AM 42.9931 -113.0322 123° Southeast 461 531 37,000  Level Salt Lake Center
03:50AM 42.9133 -112.8703 124° Southeast 459 528 37,000  Level Salt Lake Center
03:51AM 42.8369 -112.7456 130° Southeast 451 519 37,000  Level Salt Lake Center
03:52AM 42.7619 -112.6225 130° Southeast 445 512 37,000  Level Salt Lake Center
03:53AM 42.6811 -112.4900 130° Southeast 445 512 37,000  Level Salt Lake Center
03:54AM 42.6025 -112.3600 129° Southeast 446 513 37,000  Level Salt Lake Center
03:55AM 42.5228 -112.2292 130° Southeast 450 518 37,000  Level Salt Lake Center
03:56AM 42.4461 -112.0947 128° Southeast 451 519 37,000  Level Salt Lake Center
03:57AM 42.3764 -111.9486 123° Southeast 460 529 37,000  Level Salt Lake Center
03:58AM 42.3058 -111.8061 124° Southeast 459 528 37,000  Level Salt Lake Center
03:59AM 42.2350 -111.6633 124° Southeast 458 527 37,000  Level Salt Lake Center
04:00AM 42.1639 -111.5194 124° Southeast 459 528 37,000  Level Salt Lake Center
04:01AM 42.0933 -111.3772 124° Southeast 457 526 37,000  Level Salt Lake Center
04:02AM 42.0211 -111.2356 124° Southeast 459 528 37,000  Level Salt Lake Center
04:03AM 41.9497 -111.0928 124° Southeast 460 529 37,000  Level Salt Lake Center
04:04AM 41.8781 -110.9494 124° Southeast 461 531 37,000  Level Salt Lake Center
04:05AM 41.8067 -110.8103 125° Southeast 463 533 37,000  Level Salt Lake Center
04:06AM 41.7258 -110.6503 124° Southeast 464 534 37,000  Level Salt Lake Center
04:07AM 41.6558 -110.5139 124° Southeast 465 535 37,000  Level Salt Lake Center
04:08AM 41.5850 -110.3792 125° Southeast 466 536 37,000  Level Salt Lake Center
04:09AM 41.5050 -110.2225 124° Southeast 459 528 37,000  Level Salt Lake Center
04:10AM 41.4344 -110.0889 125° Southeast 461 531 37,000  Level Salt Lake Center
04:11AM 41.3647 -109.9542 125° Southeast 462 532 37,000  Level Salt Lake Center
04:12AM 41.2825 -109.7989 125° Southeast 461 531 37,000  Level Salt Lake Center
04:13AM 41.2128 -109.6672 125° Southeast 459 528 37,000  Level Salt Lake Center
04:14AM 41.1439 -109.5353 125° Southeast 458 527 37,000  Level Salt Lake Center
04:15AM 41.0636 -109.3833 125° Southeast 454 522 37,000  Level Salt Lake Center
04:16AM 40.9942 -109.2528 125° Southeast 455 524 37,000  Level Salt Lake Center
04:17AM 40.9244 -109.1236 126° Southeast 454 522 37,000  Level Salt Lake Center
04:18AM 40.8431 -108.9706 125° Southeast 457 526 37,000  Level Salt Lake Center
04:19AM 40.7731 -108.8414 126° Southeast 456 525 37,000  Level Salt Lake Center
04:20AM 40.7019 -108.7114 126° Southeast 458 527 37,000  Level Salt Lake Center
04:21AM 40.6178 -108.5600 126° Southeast 460 529 37,000  Level Salt Lake Center
04:22AM 40.5464 -108.4292 126° Southeast 461 531 37,000  Level Salt Lake Center
04:23AM 40.4753 -108.2994 126° Southeast 460 529 37,000  Level Salt Lake Center
04:24AM 40.3917 -108.1475 126° Southeast 459 528 37,000  Level Salt Lake Center
04:26AM 40.3078 -107.9919 125° Southeast 456 525 37,000  Level Denver Center
04:27AM 40.2222 -107.8411 127° Southeast 458 527 37,000  Level Denver Center
04:28AM 40.1503 -107.7119 126° Southeast 458 527 37,000  Level Denver Center
04:29AM 40.0778 -107.5839 126° Southeast 456 525 37,000  Level Denver Center
04:30AM 39.9936 -107.4364 127° Southeast 453 521 37,000  Level Denver Center
04:31AM 39.9211 -107.3103 127° Southeast 453 521 37,000  Level Denver Center
04:32AM 39.8531 -107.1892 126° Southeast 456 525 37,000  Level Denver Center
04:33AM 39.7778 -107.0578 127° Southeast 451 519 37,000  Level Denver Center
04:34AM 39.7011 -106.9233 127° Southeast 458 527 37,000  Level Denver Center
04:35AM 39.6189 -106.7817 127° Southeast 460 529 37,000  Level Denver Center
04:36AM 39.5456 -106.6564 127° Southeast 456 525 37,000  Level Denver Center
04:37AM 39.4603 -106.5100 127° Southeast 455 524 37,000  Level Denver Center
04:38AM 39.3853 -106.3861 128° Southeast 453 521 37,000  Level Denver Center
04:39AM 39.3136 -106.2606 126° Southeast 452 520 37,000  Level Denver Center
04:40AM 39.2378 -106.1325 127° Southeast 453 521 37,000  Level Denver Center
04:41AM 39.1617 -106.0056 128° Southeast 449 517 37,000  Level Denver Center
04:42AM 39.0858 -105.8769 127° Southeast 453 521 37,000  Level Denver Center
04:43AM 39.0103 -105.7486 127° Southeast 452 520 37,000  Level Denver Center
04:44AM 38.9331 -105.6222 128° Southeast 451 519 37,000  Level Denver Center
04:45AM 38.8564 -105.4958 128° Southeast 450 518 37,000  Level Denver Center
04:46AM 38.7808 -105.3694 127° Southeast 450 518 37,000  Level Denver Center
04:47AM 38.7047 -105.2433 128° Southeast 449 517 37,000  Level Denver Center
04:48AM 38.6286 -105.1186 128° Southeast 447 514 37,000  Level Denver Center
04:49AM 38.5525 -104.9931 128° Southeast 449 517 37,000  Level Denver Center
04:50AM 38.4592 -104.8414 128° Southeast 452 520 37,000  Level Denver Center
04:51AM 38.3825 -104.7136 127° Southeast 456 525 37,000  Level Denver Center
04:52AM 38.3133 -104.6053 129° Southeast 453 521 37,000  Level Denver Center
04:53AM 38.2278 -104.4661 128° Southeast 445 512 37,000  Level Denver Center
04:54AM 38.1533 -104.3481 129° Southeast 446 513 37,000  Level Denver Center
04:55AM 38.0781 -104.2286 129° Southeast 449 517 37,000  Level Denver Center
04:56AM 38.0022 -104.1083 129° Southeast 453 521 37,000  Level Denver Center
04:57AM 37.9147 -103.9686 128° Southeast 451 519 37,000  Level Denver Center
04:58AM 37.8392 -103.8472 128° Southeast 454 522 37,000  Level Denver Center
04:59AM 37.7628 -103.7264 129° Southeast 454 522 37,000  Level Denver Center
05:00AM 37.6856 -103.6061 129° Southeast 455 524 37,000  Level Denver Center
05:01AM 37.5953 -103.4669 129° Southeast 455 524 37,000  Level Denver Center
05:02AM 37.5189 -103.3481 129° Southeast 454 522 37,000  Level Denver Center
05:03AM 37.4411 -103.2281 129° Southeast 459 528 37,000  Level Denver Center
05:04AM 37.3642 -103.1092 129° Southeast 457 526 37,000  Level Denver Center
05:05AM 37.2992 -103.0114 130° Southeast 458 527 37,000  Level Albuquerque Center
05:06AM 37.2103 -102.8728 129° Southeast 455 524 37,000  Level Albuquerque Center
05:07AM 37.1325 -102.7556 130° Southeast 457 526 37,000  Level Albuquerque Center
05:08AM 37.0558 -102.6383 129° Southeast 455 524 37,000  Level Albuquerque Center
05:09AM 36.9700 -102.5089 130° Southeast 457 526 37,000  Level Albuquerque Center
05:10AM 36.8919 -102.3914 130° Southeast 459 528 37,000  Level Albuquerque Center
05:11AM 36.8019 -102.2569 130° Southeast 457 526 37,000  Level Albuquerque Center
05:12AM 36.7231 -102.1381 130° Southeast 459 528 37,000  Level Albuquerque Center
05:13AM 36.6453 -102.0208 130° Southeast 459 528 37,000  Level Albuquerque Center
05:14AM 36.5569 -101.8906 130° Southeast 460 529 37,000  Level Albuquerque Center
05:15AM 36.4753 -101.7683 130° Southeast 460 529 37,000  Level Albuquerque Center
05:16AM 36.3919 -101.6475 118° Southeast 459 528 37,000  Level Albuquerque Center
05:17AM 36.3172 -101.5381 130° Southeast 462 532 37,000  Level Albuquerque Center
05:18AM 36.2250 -101.3994 129° Southeast 468 539 37,000  Level Albuquerque Center
05:19AM 36.1403 -101.2744 130° Southeast 471 542 37,000  Level Albuquerque Center
05:20AM 36.0694 -101.1692 130° Southeast 472 543 37,000  Level Albuquerque Center
05:21AM 35.9697 -101.0256 131° Southeast 472 543 37,000  Level Albuquerque Center
05:22AM 35.8975 -100.9219 131° Southeast 476 548 37,000  Level Albuquerque Center
05:23AM 35.8117 -100.7986 131° Southeast 475 547 37,000  Level Albuquerque Center
05:24AM 35.7111 -100.6533 130° Southeast 475 547 37,000  Level Albuquerque Center
05:25AM 35.6400 -100.5522 131° Southeast 474 545 37,000  Level Albuquerque Center
05:26AM 35.5553 -100.4303 130° Southeast 472 543 37,000  Level Albuquerque Center
05:27AM 35.4697 -100.3092 131° Southeast 470 541 37,000  Level Albuquerque Center
05:28AM 35.3819 -100.1875 131° Southeast 474 545 37,000  Level Albuquerque Center
05:29AM 35.2794 -100.0428 131° Southeast 470 541 37,000  Level Albuquerque Center
05:30AM 35.1925 -99.9211 131° Southeast 474 545 37,000  Level Albuquerque Center
05:31AM 35.0997 -99.7939 132° Southeast 476 548 37,000  Level Fort Worth Center
05:32AM 35.0167 -99.6750 130° Southeast 476 548 37,000  Level Fort Worth Center
05:33AM 34.9269 -99.5508 131° Southeast 476 548 37,000  Level Fort Worth Center
05:34AM 34.8392 -99.4325 132° Southeast 476 548 37,000  Level Fort Worth Center
05:35AM 34.7450 -99.3139 134° Southeast 476 548 37,000  Level Fort Worth Center
05:36AM 34.6275 -99.2356 151° Southeast 476 548 37,000  Level Fort Worth Center
05:37AM 34.5097 -99.1500 149° Southeast 489 563 37,000  Level Fort Worth Center
05:38AM 34.4019 -99.0847 153° Southeast 489 563 37,000  Level Fort Worth Center
05:39AM 34.2861 -99.0072 151° Southeast 483 556 37,000 -180 Level Fort Worth Center
05:40AM 34.1661 -98.9297 152° Southeast 478 550 36,700 -1,620 Descending Fort Worth Center
05:41AM 34.0481 -98.8497 151° Southeast 483 556 33,800 -3,000 Descending Fort Worth Center
05:42AM 33.9300 -98.7728 152° Southeast 489 563 30,700 -2,820 Descending Fort Worth Center
05:43AM 33.8119 -98.6883 149° Southeast 489 563 28,200 -2,100 Descending Fort Worth Center
05:44AM 33.7044 -98.6044 147° Southeast 484 557 26,500 -2,100 Descending Fort Worth Center
05:45AM 33.6092 -98.5083 140° Southeast 461 531 24,100 -2,400 Descending Fort Worth Center
05:46AM 33.5058 -98.4025 139° Southeast 444 511 21,700 -2,160 Descending Fort Worth Center
05:47AM 33.4167 -98.3119 140° Southeast 428 493 19,800 -1,800 Descending Fort Worth Center
05:48AM 33.3317 -98.2239 139° Southeast 418 481 18,100 -1,560 Descending Fort Worth Center
05:49AM 33.2508 -98.1411 139° Southeast 404 465 16,700 -1,200 Descending Fort Worth Center
05:50AM 33.1761 -98.0661 140° Southeast 373 429 15,700 -1,200 Descending Fort Worth Center
05:51AM 33.1139 -97.9889 134° Southeast 331 381 14,400 -1,560 Descending Fort Worth Center
05:52AM 33.0578 -97.9042 128° Southeast 321 369 12,600 -1,620 Descending Fort Worth Center
05:53AM 33.0100 -97.8197 124° Southeast 315 362 11,200 -1,560 Descending Fort Worth Center
05:54AM 33.0061 -97.7206 93° East 294 338 9,500 -1,620 Descending Fort Worth Center
05:55AM 33.0147 -97.6192 84° East 289 333 8,000 -1,260 Descending Fort Worth Center
05:56AM 33.0192 -97.5250 87° East 289 333 7,000 -900 Descending Fort Worth Center
05:57AM 33.0211 -97.4406 88° East 289 333 6,300 -900 Descending Fort Worth Center
05:58AM 33.0253 -97.3392 87° East 279 321 5,200 -1,020 Descending Fort Worth Center
05:59AM 33.0294 -97.2622 86° East 269 310 4,300 -1,020 Descending Fort Worth Center
06:00AM 33.0356 -97.1681 86° East 264 304 3,200 -780 Descending Fort Worth Center
06:00AM 33.0333 -97.1167 93° East 226 260 3,000 -300 Descending Dallas / Fort Worth TRACON